sensor_id;sensor_type;location;lat;lon;timestamp;P1;durP1;ratioP1;P2;durP2;ratioP2
21780;SDS011;52576;53.614;9.894;2023-03-14T00:00:47;12.40;;;2.90;;
21780;SDS011;52576;53.614;9.894;2023-03-14T00:02:51;9.95;;;2.88;;
21780;SDS011;52576;53.614;9.894;2023-03-14T00:04:55;10.57;;;3.00;;
21780;SDS011;52576;53.614;9.894;2023-03-14T00:06:58;11.20;;;3.20;;
21780;SDS011;52576;53.614;9.894;2023-03-14T00:09:02;8.55;;;2.88;;
21780;SDS011;52576;53.614;9.894;2023-03-14T00:11:06;10.55;;;3.47;;
21780;SDS011;52576;53.614;9.894;2023-03-14T00:13:12;11.80;;;3.20;;
21780;SDS011;52576;53.614;9.894;2023-03-14T00:15:15;10.15;;;3.47;;
21780;SDS011;52576;53.614;9.894;2023-03-14T00:17:19;6.63;;;2.80;;
21780;SDS011;52576;53.614;9.894;2023-03-14T00:19:22;10.60;;;3.20;;
21780;SDS011;52576;53.614;9.894;2023-03-14T00:21:26;10.93;;;3.10;;
21780;SDS011;52576;53.614;9.894;2023-03-14T00:23:30;9.18;;;3.35;;
21780;SDS011;52576;53.614;9.894;2023-03-14T00:25:34;10.07;;;3.67;;
21780;SDS011;52576;53.614;9.894;2023-03-14T00:27:38;8.65;;;3.13;;
21780;SDS011;52576;53.614;9.894;2023-03-14T00:29:43;13.65;;;3.05;;
21780;SDS011;52576;53.614;9.894;2023-03-14T00:31:47;10.70;;;2.60;;
21780;SDS011;52576;53.614;9.894;2023-03-14T00:33:51;8.85;;;2.90;;
21780;SDS011;52576;53.614;9.894;2023-03-14T00:35:56;9.82;;;3.03;;
21780;SDS011;52576;53.614;9.894;2023-03-14T00:38:03;11.23;;;3.33;;
21780;SDS011;52576;53.614;9.894;2023-03-14T00:40:07;8.50;;;2.60;;
21780;SDS011;52576;53.614;9.894;2023-03-14T00:42:11;12.38;;;2.60;;
21780;SDS011;52576;53.614;9.894;2023-03-14T00:44:15;15.30;;;3.10;;
21780;SDS011;52576;53.614;9.894;2023-03-14T00:46:19;13.52;;;3.13;;
21780;SDS011;52576;53.614;9.894;2023-03-14T00:48:23;13.20;;;2.67;;
21780;SDS011;52576;53.614;9.894;2023-03-14T00:50:26;11.82;;;3.38;;
21780;SDS011;52576;53.614;9.894;2023-03-14T00:52:30;13.32;;;2.92;;
21780;SDS011;52576;53.614;9.894;2023-03-14T00:54:33;11.45;;;3.00;;
21780;SDS011;52576;53.614;9.894;2023-03-14T00:56:36;12.10;;;2.90;;
21780;SDS011;52576;53.614;9.894;2023-03-14T00:58:43;14.18;;;3.38;;
21780;SDS011;52576;53.614;9.894;2023-03-14T01:00:46;17.00;;;3.58;;
21780;SDS011;52576;53.614;9.894;2023-03-14T01:02:52;14.52;;;3.17;;
21780;SDS011;52576;53.614;9.894;2023-03-14T01:04:58;16.92;;;3.35;;
21780;SDS011;52576;53.614;9.894;2023-03-14T01:07:01;13.18;;;3.30;;
21780;SDS011;52576;53.614;9.894;2023-03-14T01:09:06;14.57;;;2.63;;
21780;SDS011;52576;53.614;9.894;2023-03-14T01:11:09;14.45;;;3.35;;
21780;SDS011;52576;53.614;9.894;2023-03-14T01:13:18;12.95;;;2.97;;
21780;SDS011;52576;53.614;9.894;2023-03-14T01:15:22;14.88;;;3.58;;
21780;SDS011;52576;53.614;9.894;2023-03-14T01:17:25;15.77;;;2.90;;
21780;SDS011;52576;53.614;9.894;2023-03-14T01:19:32;12.00;;;2.70;;
21780;SDS011;52576;53.614;9.894;2023-03-14T01:21:35;11.38;;;2.83;;
21780;SDS011;52576;53.614;9.894;2023-03-14T01:23:39;9.75;;;2.80;;
21780;SDS011;52576;53.614;9.894;2023-03-14T01:25:42;13.38;;;3.17;;
21780;SDS011;52576;53.614;9.894;2023-03-14T01:27:46;15.80;;;3.08;;
21780;SDS011;52576;53.614;9.894;2023-03-14T01:29:49;10.40;;;2.72;;
21780;SDS011;52576;53.614;9.894;2023-03-14T01:31:53;17.23;;;2.63;;
21780;SDS011;52576;53.614;9.894;2023-03-14T01:33:57;13.23;;;2.88;;
21780;SDS011;52576;53.614;9.894;2023-03-14T01:36:02;9.93;;;2.58;;
21780;SDS011;52576;53.614;9.894;2023-03-14T01:38:06;12.88;;;3.13;;
21780;SDS011;52576;53.614;9.894;2023-03-14T01:40:10;11.50;;;3.00;;
21780;SDS011;52576;53.614;9.894;2023-03-14T01:42:15;8.95;;;2.70;;
21780;SDS011;52576;53.614;9.894;2023-03-14T01:44:19;12.85;;;3.13;;
21780;SDS011;52576;53.614;9.894;2023-03-14T01:46:28;14.57;;;3.17;;
21780;SDS011;52576;53.614;9.894;2023-03-14T01:48:37;10.18;;;3.20;;
21780;SDS011;52576;53.614;9.894;2023-03-14T01:50:43;12.52;;;3.22;;
21780;SDS011;52576;53.614;9.894;2023-03-14T01:52:48;15.35;;;3.38;;
21780;SDS011;52576;53.614;9.894;2023-03-14T01:54:54;18.08;;;3.90;;
21780;SDS011;52576;53.614;9.894;2023-03-14T01:57:02;10.02;;;3.03;;
21780;SDS011;52576;53.614;9.894;2023-03-14T01:59:09;12.93;;;3.40;;
21780;SDS011;52576;53.614;9.894;2023-03-14T02:01:14;6.75;;;2.60;;
21780;SDS011;52576;53.614;9.894;2023-03-14T02:03:20;12.63;;;3.22;;
21780;SDS011;52576;53.614;9.894;2023-03-14T02:05:27;12.85;;;2.83;;
21780;SDS011;52576;53.614;9.894;2023-03-14T02:07:43;11.38;;;2.90;;
21780;SDS011;52576;53.614;9.894;2023-03-14T02:09:57;9.35;;;2.95;;
21780;SDS011;52576;53.614;9.894;2023-03-14T02:12:06;11.10;;;2.92;;
21780;SDS011;52576;53.614;9.894;2023-03-14T02:14:24;13.27;;;3.10;;
21780;SDS011;52576;53.614;9.894;2023-03-14T02:16:58;9.98;;;3.13;;
21780;SDS011;52576;53.614;9.894;2023-03-14T02:19:26;9.35;;;3.05;;
21780;SDS011;52576;53.614;9.894;2023-03-14T02:21:57;9.23;;;2.90;;
21780;SDS011;52576;53.614;9.894;2023-03-14T02:24:13;16.08;;;3.72;;
21780;SDS011;52576;53.614;9.894;2023-03-14T02:26:30;10.70;;;3.22;;
21780;SDS011;52576;53.614;9.894;2023-03-14T02:28:41;10.20;;;3.30;;
21780;SDS011;52576;53.614;9.894;2023-03-14T02:30:45;9.65;;;3.28;;
21780;SDS011;52576;53.614;9.894;2023-03-14T02:32:49;15.48;;;3.65;;
21780;SDS011;52576;53.614;9.894;2023-03-14T02:34:57;10.18;;;3.47;;
21780;SDS011;52576;53.614;9.894;2023-03-14T02:37:03;10.30;;;3.28;;
21780;SDS011;52576;53.614;9.894;2023-03-14T02:39:09;9.80;;;3.42;;
21780;SDS011;52576;53.614;9.894;2023-03-14T02:41:19;11.95;;;3.60;;
21780;SDS011;52576;53.614;9.894;2023-03-14T02:43:31;14.38;;;3.15;;
21780;SDS011;52576;53.614;9.894;2023-03-14T02:45:41;11.90;;;3.00;;
21780;SDS011;52576;53.614;9.894;2023-03-14T02:47:51;10.55;;;2.90;;
21780;SDS011;52576;53.614;9.894;2023-03-14T02:50:00;7.65;;;2.85;;
21780;SDS011;52576;53.614;9.894;2023-03-14T02:52:07;10.75;;;3.10;;
21780;SDS011;52576;53.614;9.894;2023-03-14T02:54:10;10.57;;;3.28;;
21780;SDS011;52576;53.614;9.894;2023-03-14T02:56:14;9.77;;;3.28;;
21780;SDS011;52576;53.614;9.894;2023-03-14T02:58:18;11.20;;;3.58;;
21780;SDS011;52576;53.614;9.894;2023-03-14T03:00:26;10.32;;;3.50;;
21780;SDS011;52576;53.614;9.894;2023-03-14T03:02:34;12.50;;;3.40;;
21780;SDS011;52576;53.614;9.894;2023-03-14T03:04:37;10.07;;;3.47;;
21780;SDS011;52576;53.614;9.894;2023-03-14T03:06:40;11.30;;;3.50;;
21780;SDS011;52576;53.614;9.894;2023-03-14T03:08:44;10.82;;;3.22;;
21780;SDS011;52576;53.614;9.894;2023-03-14T03:10:48;9.30;;;3.42;;
21780;SDS011;52576;53.614;9.894;2023-03-14T03:12:52;10.73;;;3.35;;
21780;SDS011;52576;53.614;9.894;2023-03-14T03:14:59;12.15;;;3.35;;
21780;SDS011;52576;53.614;9.894;2023-03-14T03:17:04;12.82;;;3.47;;
21780;SDS011;52576;53.614;9.894;2023-03-14T03:19:09;9.10;;;2.90;;
21780;SDS011;52576;53.614;9.894;2023-03-14T03:21:13;7.80;;;2.85;;
21780;SDS011;52576;53.614;9.894;2023-03-14T03:23:17;10.65;;;3.28;;
21780;SDS011;52576;53.614;9.894;2023-03-14T03:25:21;7.35;;;3.28;;
21780;SDS011;52576;53.614;9.894;2023-03-14T03:27:24;9.40;;;3.30;;
21780;SDS011;52576;53.614;9.894;2023-03-14T03:29:27;10.80;;;3.20;;
21780;SDS011;52576;53.614;9.894;2023-03-14T03:31:31;10.63;;;3.67;;
21780;SDS011;52576;53.614;9.894;2023-03-14T03:33:35;10.18;;;3.38;;
21780;SDS011;52576;53.614;9.894;2023-03-14T03:35:44;8.85;;;3.13;;
21780;SDS011;52576;53.614;9.894;2023-03-14T03:37:51;9.73;;;3.15;;
21780;SDS011;52576;53.614;9.894;2023-03-14T03:39:55;10.93;;;3.40;;
21780;SDS011;52576;53.614;9.894;2023-03-14T03:41:59;10.02;;;3.10;;
21780;SDS011;52576;53.614;9.894;2023-03-14T03:44:03;14.27;;;3.80;;
21780;SDS011;52576;53.614;9.894;2023-03-14T03:46:07;9.30;;;2.80;;
21780;SDS011;52576;53.614;9.894;2023-03-14T03:48:11;6.05;;;2.60;;
21780;SDS011;52576;53.614;9.894;2023-03-14T03:50:15;6.78;;;2.45;;
21780;SDS011;52576;53.614;9.894;2023-03-14T03:52:20;8.90;;;2.95;;
21780;SDS011;52576;53.614;9.894;2023-03-14T03:54:23;13.27;;;3.90;;
21780;SDS011;52576;53.614;9.894;2023-03-14T03:56:27;9.93;;;3.10;;
21780;SDS011;52576;53.614;9.894;2023-03-14T03:58:31;10.05;;;3.25;;
21780;SDS011;52576;53.614;9.894;2023-03-14T04:00:34;9.40;;;2.90;;
21780;SDS011;52576;53.614;9.894;2023-03-14T04:02:38;9.80;;;2.72;;
21780;SDS011;52576;53.614;9.894;2023-03-14T04:04:43;9.90;;;3.58;;
21780;SDS011;52576;53.614;9.894;2023-03-14T04:06:47;12.98;;;3.10;;
21780;SDS011;52576;53.614;9.894;2023-03-14T04:08:52;7.45;;;2.90;;
21780;SDS011;52576;53.614;9.894;2023-03-14T04:11:06;10.07;;;2.90;;
21780;SDS011;52576;53.614;9.894;2023-03-14T04:13:28;11.93;;;3.00;;
21780;SDS011;52576;53.614;9.894;2023-03-14T04:15:32;9.13;;;2.90;;
21780;SDS011;52576;53.614;9.894;2023-03-14T04:17:42;8.20;;;2.80;;
21780;SDS011;52576;53.614;9.894;2023-03-14T04:19:48;11.57;;;3.42;;
21780;SDS011;52576;53.614;9.894;2023-03-14T04:21:55;11.45;;;3.78;;
21780;SDS011;52576;53.614;9.894;2023-03-14T04:24:03;9.68;;;3.00;;
21780;SDS011;52576;53.614;9.894;2023-03-14T04:26:09;9.40;;;2.85;;
21780;SDS011;52576;53.614;9.894;2023-03-14T04:28:12;7.95;;;2.95;;
21780;SDS011;52576;53.614;9.894;2023-03-14T04:30:16;11.50;;;3.20;;
21780;SDS011;52576;53.614;9.894;2023-03-14T04:32:27;8.77;;;3.17;;
21780;SDS011;52576;53.614;9.894;2023-03-14T04:34:32;11.65;;;3.13;;
21780;SDS011;52576;53.614;9.894;2023-03-14T04:36:36;10.15;;;3.17;;
21780;SDS011;52576;53.614;9.894;2023-03-14T04:38:45;15.75;;;3.25;;
21780;SDS011;52576;53.614;9.894;2023-03-14T04:40:53;10.93;;;3.63;;
21780;SDS011;52576;53.614;9.894;2023-03-14T04:43:00;11.57;;;3.53;;
21780;SDS011;52576;53.614;9.894;2023-03-14T04:45:05;8.45;;;3.20;;
21780;SDS011;52576;53.614;9.894;2023-03-14T04:47:11;5.93;;;1.92;;
21780;SDS011;52576;53.614;9.894;2023-03-14T04:49:15;5.43;;;1.40;;
21780;SDS011;52576;53.614;9.894;2023-03-14T04:51:19;3.85;;;1.30;;
21780;SDS011;52576;53.614;9.894;2023-03-14T04:53:25;3.50;;;1.25;;
21780;SDS011;52576;53.614;9.894;2023-03-14T04:55:30;6.50;;;1.20;;
21780;SDS011;52576;53.614;9.894;2023-03-14T04:57:36;4.18;;;1.35;;
21780;SDS011;52576;53.614;9.894;2023-03-14T04:59:43;5.05;;;1.10;;
21780;SDS011;52576;53.614;9.894;2023-03-14T05:01:59;5.60;;;1.27;;
21780;SDS011;52576;53.614;9.894;2023-03-14T05:04:18;4.32;;;1.40;;
21780;SDS011;52576;53.614;9.894;2023-03-14T05:08:41;3.80;;;1.35;;
21780;SDS011;52576;53.614;9.894;2023-03-14T05:13:31;4.88;;;1.60;;
21780;SDS011;52576;53.614;9.894;2023-03-14T05:15:44;3.90;;;1.45;;
21780;SDS011;52576;53.614;9.894;2023-03-14T05:18:08;5.95;;;1.80;;
21780;SDS011;52576;53.614;9.894;2023-03-14T05:20:37;5.95;;;1.52;;
21780;SDS011;52576;53.614;9.894;2023-03-14T05:22:56;6.20;;;1.73;;
21780;SDS011;52576;53.614;9.894;2023-03-14T05:25:22;6.38;;;1.92;;
21780;SDS011;52576;53.614;9.894;2023-03-14T05:27:55;6.85;;;1.90;;
21780;SDS011;52576;53.614;9.894;2023-03-14T05:30:35;3.45;;;1.80;;
21780;SDS011;52576;53.614;9.894;2023-03-14T05:32:41;7.80;;;2.05;;
21780;SDS011;52576;53.614;9.894;2023-03-14T05:34:47;7.68;;;2.40;;
21780;SDS011;52576;53.614;9.894;2023-03-14T05:37:01;8.18;;;2.70;;
21780;SDS011;52576;53.614;9.894;2023-03-14T05:39:37;7.28;;;2.60;;
21780;SDS011;52576;53.614;9.894;2023-03-14T05:41:59;7.63;;;2.83;;
21780;SDS011;52576;53.614;9.894;2023-03-14T05:44:28;8.32;;;2.80;;
21780;SDS011;52576;53.614;9.894;2023-03-14T05:47:08;7.53;;;3.33;;
21780;SDS011;52576;53.614;9.894;2023-03-14T05:49:23;5.68;;;3.40;;
21780;SDS011;52576;53.614;9.894;2023-03-14T05:51:36;8.63;;;3.50;;
21780;SDS011;52576;53.614;9.894;2023-03-14T05:54:06;9.38;;;3.70;;
21780;SDS011;52576;53.614;9.894;2023-03-14T05:56:36;11.10;;;4.38;;
21780;SDS011;52576;53.614;9.894;2023-03-14T05:58:45;9.13;;;4.35;;
21780;SDS011;52576;53.614;9.894;2023-03-14T06:01:01;11.73;;;4.18;;
21780;SDS011;52576;53.614;9.894;2023-03-14T06:03:25;9.05;;;4.38;;
21780;SDS011;52576;53.614;9.894;2023-03-14T06:05:29;13.93;;;4.57;;
21780;SDS011;52576;53.614;9.894;2023-03-14T06:07:35;9.63;;;5.05;;
21780;SDS011;52576;53.614;9.894;2023-03-14T06:09:39;12.88;;;4.70;;
21780;SDS011;52576;53.614;9.894;2023-03-14T06:11:43;11.65;;;5.10;;
21780;SDS011;52576;53.614;9.894;2023-03-14T06:13:47;13.00;;;5.32;;
21780;SDS011;52576;53.614;9.894;2023-03-14T06:15:51;12.07;;;5.70;;
21780;SDS011;52576;53.614;9.894;2023-03-14T06:17:54;12.52;;;5.93;;
21780;SDS011;52576;53.614;9.894;2023-03-14T06:20:01;11.48;;;5.80;;
21780;SDS011;52576;53.614;9.894;2023-03-14T06:22:05;13.20;;;6.80;;
21780;SDS011;52576;53.614;9.894;2023-03-14T06:24:11;15.15;;;7.20;;
21780;SDS011;52576;53.614;9.894;2023-03-14T06:26:19;11.82;;;6.53;;
21780;SDS011;52576;53.614;9.894;2023-03-14T06:28:23;14.18;;;6.40;;
21780;SDS011;52576;53.614;9.894;2023-03-14T06:30:31;17.27;;;7.15;;
21780;SDS011;52576;53.614;9.894;2023-03-14T06:32:34;14.88;;;7.30;;
21780;SDS011;52576;53.614;9.894;2023-03-14T06:34:42;12.55;;;6.78;;
21780;SDS011;52576;53.614;9.894;2023-03-14T06:36:47;15.05;;;6.93;;
21780;SDS011;52576;53.614;9.894;2023-03-14T06:38:50;14.15;;;7.25;;
21780;SDS011;52576;53.614;9.894;2023-03-14T06:40:54;13.57;;;6.78;;
21780;SDS011;52576;53.614;9.894;2023-03-14T06:43:07;15.88;;;7.15;;
21780;SDS011;52576;53.614;9.894;2023-03-14T06:45:12;18.60;;;7.05;;
21780;SDS011;52576;53.614;9.894;2023-03-14T06:47:16;16.33;;;7.20;;
21780;SDS011;52576;53.614;9.894;2023-03-14T06:49:20;13.88;;;6.57;;
21780;SDS011;52576;53.614;9.894;2023-03-14T06:51:27;15.40;;;6.60;;
21780;SDS011;52576;53.614;9.894;2023-03-14T06:53:31;15.25;;;6.25;;
21780;SDS011;52576;53.614;9.894;2023-03-14T06:55:36;14.57;;;5.88;;
21780;SDS011;52576;53.614;9.894;2023-03-14T06:57:40;15.05;;;5.28;;
21780;SDS011;52576;53.614;9.894;2023-03-14T06:59:46;13.48;;;5.45;;
21780;SDS011;52576;53.614;9.894;2023-03-14T07:01:49;12.25;;;5.32;;
21780;SDS011;52576;53.614;9.894;2023-03-14T07:03:53;11.77;;;4.85;;
21780;SDS011;52576;53.614;9.894;2023-03-14T07:05:57;9.25;;;4.45;;
21780;SDS011;52576;53.614;9.894;2023-03-14T07:08:01;11.25;;;4.40;;
21780;SDS011;52576;53.614;9.894;2023-03-14T07:10:06;14.18;;;4.05;;
21780;SDS011;52576;53.614;9.894;2023-03-14T07:12:11;17.17;;;3.90;;
21780;SDS011;52576;53.614;9.894;2023-03-14T07:14:14;10.02;;;3.15;;
21780;SDS011;52576;53.614;9.894;2023-03-14T07:16:18;11.38;;;3.20;;
21780;SDS011;52576;53.614;9.894;2023-03-14T07:18:21;13.02;;;3.40;;
21780;SDS011;52576;53.614;9.894;2023-03-14T07:20:25;9.55;;;2.70;;
21780;SDS011;52576;53.614;9.894;2023-03-14T07:22:29;9.95;;;2.70;;
21780;SDS011;52576;53.614;9.894;2023-03-14T07:24:32;12.27;;;2.67;;
21780;SDS011;52576;53.614;9.894;2023-03-14T07:26:37;10.63;;;2.67;;
21780;SDS011;52576;53.614;9.894;2023-03-14T07:28:41;8.27;;;2.10;;
21780;SDS011;52576;53.614;9.894;2023-03-14T07:30:48;11.20;;;2.78;;
21780;SDS011;52576;53.614;9.894;2023-03-14T07:32:58;11.40;;;2.08;;
21780;SDS011;52576;53.614;9.894;2023-03-14T07:35:02;6.97;;;1.88;;
21780;SDS011;52576;53.614;9.894;2023-03-14T07:37:09;7.22;;;2.13;;
21780;SDS011;52576;53.614;9.894;2023-03-14T07:39:12;7.45;;;1.90;;
21780;SDS011;52576;53.614;9.894;2023-03-14T07:41:40;7.82;;;2.08;;
21780;SDS011;52576;53.614;9.894;2023-03-14T07:44:01;7.82;;;2.17;;
21780;SDS011;52576;53.614;9.894;2023-03-14T07:46:05;9.57;;;2.20;;
21780;SDS011;52576;53.614;9.894;2023-03-14T07:48:09;10.05;;;2.22;;
21780;SDS011;52576;53.614;9.894;2023-03-14T07:50:12;7.38;;;2.03;;
21780;SDS011;52576;53.614;9.894;2023-03-14T07:52:16;11.30;;;2.60;;
21780;SDS011;52576;53.614;9.894;2023-03-14T07:54:19;8.93;;;2.10;;
21780;SDS011;52576;53.614;9.894;2023-03-14T07:56:22;9.30;;;2.55;;
21780;SDS011;52576;53.614;9.894;2023-03-14T07:58:27;12.63;;;2.50;;
21780;SDS011;52576;53.614;9.894;2023-03-14T08:00:30;8.40;;;2.40;;
21780;SDS011;52576;53.614;9.894;2023-03-14T08:02:34;9.50;;;2.30;;
21780;SDS011;52576;53.614;9.894;2023-03-14T08:04:38;12.13;;;2.90;;
21780;SDS011;52576;53.614;9.894;2023-03-14T08:06:42;7.75;;;2.30;;
21780;SDS011;52576;53.614;9.894;2023-03-14T08:08:45;7.90;;;2.30;;
21780;SDS011;52576;53.614;9.894;2023-03-14T08:10:48;7.65;;;2.30;;
21780;SDS011;52576;53.614;9.894;2023-03-14T08:12:53;7.40;;;1.90;;
21780;SDS011;52576;53.614;9.894;2023-03-14T08:15:00;10.27;;;2.13;;
21780;SDS011;52576;53.614;9.894;2023-03-14T08:17:04;10.68;;;2.13;;
21780;SDS011;52576;53.614;9.894;2023-03-14T08:19:09;7.40;;;2.35;;
21780;SDS011;52576;53.614;9.894;2023-03-14T08:21:13;8.00;;;1.73;;
21780;SDS011;52576;53.614;9.894;2023-03-14T08:23:17;4.47;;;1.70;;
21780;SDS011;52576;53.614;9.894;2023-03-14T08:25:20;7.50;;;1.80;;
21780;SDS011;52576;53.614;9.894;2023-03-14T08:27:24;5.65;;;1.90;;
21780;SDS011;52576;53.614;9.894;2023-03-14T08:29:27;7.50;;;2.05;;
21780;SDS011;52576;53.614;9.894;2023-03-14T08:31:32;7.00;;;1.80;;
21780;SDS011;52576;53.614;9.894;2023-03-14T08:33:35;10.77;;;1.70;;
21780;SDS011;52576;53.614;9.894;2023-03-14T08:35:39;6.45;;;1.70;;
21780;SDS011;52576;53.614;9.894;2023-03-14T08:37:42;6.15;;;1.60;;
21780;SDS011;52576;53.614;9.894;2023-03-14T08:39:46;8.10;;;1.95;;
21780;SDS011;52576;53.614;9.894;2023-03-14T08:41:50;6.60;;;1.67;;
21780;SDS011;52576;53.614;9.894;2023-03-14T08:43:53;8.93;;;1.88;;
21780;SDS011;52576;53.614;9.894;2023-03-14T08:45:57;7.13;;;1.70;;
21780;SDS011;52576;53.614;9.894;2023-03-14T08:48:02;6.82;;;2.10;;
21780;SDS011;52576;53.614;9.894;2023-03-14T08:50:07;11.00;;;2.72;;
21780;SDS011;52576;53.614;9.894;2023-03-14T08:52:16;6.57;;;2.00;;
21780;SDS011;52576;53.614;9.894;2023-03-14T08:54:20;8.35;;;2.17;;
21780;SDS011;52576;53.614;9.894;2023-03-14T08:56:23;9.15;;;2.33;;
21780;SDS011;52576;53.614;9.894;2023-03-14T08:58:27;7.70;;;2.15;;
21780;SDS011;52576;53.614;9.894;2023-03-14T09:00:31;9.75;;;2.72;;
21780;SDS011;52576;53.614;9.894;2023-03-14T09:02:34;9.27;;;2.85;;
21780;SDS011;52576;53.614;9.894;2023-03-14T09:04:39;11.32;;;2.63;;
21780;SDS011;52576;53.614;9.894;2023-03-14T09:06:42;9.27;;;2.35;;
21780;SDS011;52576;53.614;9.894;2023-03-14T09:08:45;9.10;;;2.70;;
21780;SDS011;52576;53.614;9.894;2023-03-14T09:10:49;10.23;;;2.47;;
21780;SDS011;52576;53.614;9.894;2023-03-14T09:12:53;9.50;;;3.00;;
21780;SDS011;52576;53.614;9.894;2023-03-14T09:14:56;12.25;;;3.55;;
21780;SDS011;52576;53.614;9.894;2023-03-14T09:16:59;9.45;;;3.45;;
21780;SDS011;52576;53.614;9.894;2023-03-14T09:19:03;11.98;;;3.30;;
21780;SDS011;52576;53.614;9.894;2023-03-14T09:21:08;8.20;;;3.40;;
21780;SDS011;52576;53.614;9.894;2023-03-14T09:23:12;13.18;;;3.22;;
21780;SDS011;52576;53.614;9.894;2023-03-14T09:25:15;14.32;;;3.58;;
21780;SDS011;52576;53.614;9.894;2023-03-14T09:27:19;15.15;;;3.35;;
21780;SDS011;52576;53.614;9.894;2023-03-14T09:29:22;11.35;;;2.75;;
21780;SDS011;52576;53.614;9.894;2023-03-14T09:31:26;9.80;;;3.58;;
21780;SDS011;52576;53.614;9.894;2023-03-14T09:33:30;11.27;;;4.00;;
21780;SDS011;52576;53.614;9.894;2023-03-14T09:35:34;11.07;;;2.88;;
21780;SDS011;52576;53.614;9.894;2023-03-14T09:37:38;13.27;;;3.75;;
21780;SDS011;52576;53.614;9.894;2023-03-14T09:39:42;11.50;;;3.38;;
21780;SDS011;52576;53.614;9.894;2023-03-14T09:41:46;14.55;;;3.50;;
21780;SDS011;52576;53.614;9.894;2023-03-14T09:43:53;6.32;;;1.80;;
21780;SDS011;52576;53.614;9.894;2023-03-14T09:46:03;4.78;;;1.00;;
21780;SDS011;52576;53.614;9.894;2023-03-14T09:48:11;4.03;;;1.00;;
21780;SDS011;52576;53.614;9.894;2023-03-14T09:50:18;3.15;;;1.20;;
21780;SDS011;52576;53.614;9.894;2023-03-14T09:52:23;3.63;;;1.10;;
21780;SDS011;52576;53.614;9.894;2023-03-14T09:54:35;4.05;;;1.08;;
21780;SDS011;52576;53.614;9.894;2023-03-14T09:56:40;8.32;;;1.67;;
21780;SDS011;52576;53.614;9.894;2023-03-14T09:58:45;5.13;;;1.30;;
21780;SDS011;52576;53.614;9.894;2023-03-14T10:00:52;5.53;;;1.13;;
21780;SDS011;52576;53.614;9.894;2023-03-14T10:03:00;4.63;;;1.20;;
21780;SDS011;52576;53.614;9.894;2023-03-14T10:05:22;4.32;;;1.30;;
21780;SDS011;52576;53.614;9.894;2023-03-14T10:07:28;4.13;;;1.20;;
21780;SDS011;52576;53.614;9.894;2023-03-14T10:09:34;6.38;;;1.58;;
21780;SDS011;52576;53.614;9.894;2023-03-14T10:11:38;3.35;;;1.30;;
21780;SDS011;52576;53.614;9.894;2023-03-14T10:14:02;4.47;;;1.33;;
21780;SDS011;52576;53.614;9.894;2023-03-14T10:16:07;3.53;;;1.05;;
21780;SDS011;52576;53.614;9.894;2023-03-14T10:18:11;5.10;;;1.42;;
21780;SDS011;52576;53.614;9.894;2023-03-14T10:20:29;4.82;;;0.98;;
21780;SDS011;52576;53.614;9.894;2023-03-14T10:22:36;2.67;;;0.85;;
21780;SDS011;52576;53.614;9.894;2023-03-14T10:24:42;1.77;;;0.80;;
21780;SDS011;52576;53.614;9.894;2023-03-14T10:26:49;2.95;;;0.80;;
21780;SDS011;52576;53.614;9.894;2023-03-14T10:29:00;1.33;;;0.65;;
21780;SDS011;52576;53.614;9.894;2023-03-14T10:31:07;2.47;;;0.63;;
21780;SDS011;52576;53.614;9.894;2023-03-14T10:33:11;1.85;;;0.68;;
21780;SDS011;52576;53.614;9.894;2023-03-14T10:35:23;2.22;;;0.50;;
21780;SDS011;52576;53.614;9.894;2023-03-14T10:37:27;2.50;;;0.70;;
21780;SDS011;52576;53.614;9.894;2023-03-14T10:39:33;1.85;;;0.50;;
21780;SDS011;52576;53.614;9.894;2023-03-14T10:41:48;4.82;;;0.60;;
21780;SDS011;52576;53.614;9.894;2023-03-14T10:43:56;1.50;;;0.60;;
21780;SDS011;52576;53.614;9.894;2023-03-14T10:46:05;1.08;;;0.50;;
21780;SDS011;52576;53.614;9.894;2023-03-14T10:48:32;1.40;;;0.50;;
21780;SDS011;52576;53.614;9.894;2023-03-14T10:50:37;2.78;;;0.60;;
21780;SDS011;52576;53.614;9.894;2023-03-14T10:52:51;1.70;;;0.50;;
21780;SDS011;52576;53.614;9.894;2023-03-14T10:55:10;1.65;;;0.40;;
21780;SDS011;52576;53.614;9.894;2023-03-14T10:57:14;0.77;;;0.35;;
21780;SDS011;52576;53.614;9.894;2023-03-14T10:59:18;1.95;;;0.60;;
21780;SDS011;52576;53.614;9.894;2023-03-14T11:01:26;1.20;;;0.32;;
21780;SDS011;52576;53.614;9.894;2023-03-14T11:03:40;1.13;;;0.30;;
21780;SDS011;52576;53.614;9.894;2023-03-14T11:05:51;0.82;;;0.40;;
21780;SDS011;52576;53.614;9.894;2023-03-14T11:08:01;1.52;;;0.38;;
21780;SDS011;52576;53.614;9.894;2023-03-14T11:10:22;2.70;;;0.52;;
21780;SDS011;52576;53.614;9.894;2023-03-14T11:12:35;2.58;;;0.60;;
21780;SDS011;52576;53.614;9.894;2023-03-14T11:14:50;2.15;;;0.77;;
21780;SDS011;52576;53.614;9.894;2023-03-14T11:17:02;4.80;;;0.80;;
21780;SDS011;52576;53.614;9.894;2023-03-14T11:19:17;4.88;;;0.85;;
21780;SDS011;52576;53.614;9.894;2023-03-14T11:21:32;4.53;;;0.80;;
21780;SDS011;52576;53.614;9.894;2023-03-14T11:23:44;3.15;;;0.80;;
21780;SDS011;52576;53.614;9.894;2023-03-14T11:25:58;7.72;;;1.13;;
21780;SDS011;52576;53.614;9.894;2023-03-14T11:28:09;7.60;;;1.05;;
21780;SDS011;52576;53.614;9.894;2023-03-14T11:30:22;3.70;;;0.90;;
21780;SDS011;52576;53.614;9.894;2023-03-14T11:32:36;3.17;;;0.75;;
21780;SDS011;52576;53.614;9.894;2023-03-14T11:34:48;4.28;;;0.90;;
21780;SDS011;52576;53.614;9.894;2023-03-14T11:36:55;7.50;;;1.33;;
21780;SDS011;52576;53.614;9.894;2023-03-14T11:39:02;9.80;;;1.15;;
21780;SDS011;52576;53.614;9.894;2023-03-14T11:41:15;7.25;;;1.13;;
21780;SDS011;52576;53.614;9.894;2023-03-14T11:43:24;5.40;;;1.10;;
21780;SDS011;52576;53.614;9.894;2023-03-14T11:45:32;6.88;;;1.08;;
21780;SDS011;52576;53.614;9.894;2023-03-14T11:47:38;6.07;;;1.17;;
21780;SDS011;52576;53.614;9.894;2023-03-14T11:49:45;11.30;;;2.00;;
21780;SDS011;52576;53.614;9.894;2023-03-14T11:51:55;5.93;;;1.42;;
21780;SDS011;52576;53.614;9.894;2023-03-14T11:54:02;4.18;;;1.00;;
21780;SDS011;52576;53.614;9.894;2023-03-14T11:56:18;7.97;;;1.20;;
21780;SDS011;52576;53.614;9.894;2023-03-14T11:58:29;6.82;;;1.23;;
21780;SDS011;52576;53.614;9.894;2023-03-14T12:00:37;8.13;;;1.25;;
21780;SDS011;52576;53.614;9.894;2023-03-14T12:02:43;7.95;;;1.42;;
21780;SDS011;52576;53.614;9.894;2023-03-14T12:04:57;8.23;;;1.52;;
21780;SDS011;52576;53.614;9.894;2023-03-14T12:07:26;12.87;;;1.50;;
21780;SDS011;52576;53.614;9.894;2023-03-14T12:11:42;9.18;;;1.15;;
21780;SDS011;52576;53.614;9.894;2023-03-14T12:13:50;10.27;;;1.38;;
21780;SDS011;52576;53.614;9.894;2023-03-14T12:15:55;11.45;;;2.10;;
21780;SDS011;52576;53.614;9.894;2023-03-14T12:18:01;10.32;;;1.30;;
21780;SDS011;52576;53.614;9.894;2023-03-14T12:20:06;8.73;;;1.58;;
21780;SDS011;52576;53.614;9.894;2023-03-14T12:22:26;13.80;;;1.77;;
21780;SDS011;52576;53.614;9.894;2023-03-14T12:24:31;12.43;;;1.67;;
21780;SDS011;52576;53.614;9.894;2023-03-14T12:26:46;11.02;;;1.77;;
21780;SDS011;52576;53.614;9.894;2023-03-14T12:29:09;7.93;;;1.38;;
21780;SDS011;52576;53.614;9.894;2023-03-14T12:31:36;11.27;;;1.98;;
21780;SDS011;52576;53.614;9.894;2023-03-14T12:34:00;17.25;;;2.00;;
21780;SDS011;52576;53.614;9.894;2023-03-14T12:36:11;15.00;;;2.33;;
21780;SDS011;52576;53.614;9.894;2023-03-14T12:38:23;12.07;;;2.67;;
21780;SDS011;52576;53.614;9.894;2023-03-14T12:40:32;11.38;;;1.83;;
21780;SDS011;52576;53.614;9.894;2023-03-14T12:42:40;13.52;;;2.38;;
21780;SDS011;52576;53.614;9.894;2023-03-14T12:44:48;11.80;;;2.35;;
21780;SDS011;52576;53.614;9.894;2023-03-14T12:46:52;10.60;;;1.80;;
21780;SDS011;52576;53.614;9.894;2023-03-14T12:48:56;20.00;;;2.30;;
21780;SDS011;52576;53.614;9.894;2023-03-14T12:51:14;12.10;;;2.05;;